Terminal Aerodrome Forecast
Issued by NWS Spokane, WA

Home | Current Version | Previous Version | Text Only | Print | Product List | Glossary On
Versions: 1 2 3 4 5 6 7 8 9 10 11 12 13 14 15 16 17 18 19 20 21 22 23 24 25 26 27 28 29 30 31 32 33 34 35 36 37 38 39
000
FTUS46 KOTX 281848 AAA
TAFGEG
TAF AMD
KGEG 281848Z 2819/2918 21020G29KT P6SM SCT060 BKN160 WS020/24049KT
     FM282200 23027G35KT P6SM VCSH BKN040 OVC080
     FM290100 20019G30KT P6SM -RA BKN025 OVC050
     FM290700 24016G20KT P6SM SCT040 BKN080
     FM291300 26011KT P6SM VCSH SCT025 BKN040=

USA.gov is the U.S. government's official web portal to all federal, state and local government web resources and services.